Time;durP1;ratioP1;P1;durP2;ratioP2;P2;SDS_P1;SDS_P2;PMS_P1;PMS_P2;Temp;Humidity;BMP_temperature;BMP_pressure;BME280_temperature;BME280_humidity;BME280_pressure;Samples;Min_cycle;Max_cycle;Signal;HPM_P1;HPM_P2
2022/06/19 10:12:45;;;;;;;5.35;2.60;;;;;;;31.85;75.73;100034.25;1430659;19;20491;-44
2022/06/19 10:13:24;;;;;;;2.70;2.00;;;;;;;31.92;78.29;100030.50;1166974;19;5011851;-45
2022/06/19 10:14:38;;;;;;;5.63;2.00;;;;;;;32.04;75.28;100034.06;1534062;19;20427;-45
2022/06/19 10:15:17;;;;;;;4.22;2.08;;;;;;;32.10;76.33;100030.34;1433707;19;67193;-48
2022/06/19 10:20:57;;;;;;;4.80;2.23;;;;;;;32.78;66.72;100016.44;15320839;19;20384;-42
2022/06/19 10:28:15;;;;;;;;;;;;;;;32.88;61.61;100010.22;795396;19;2971922;-43
2022/06/19 10:28:33;;;;;;;;;;;;;;;32.87;59.64;100005.78;3;5011414;5011625;-43
2022/06/19 10:28:45;;;;;;;;;;;;;;;32.86;57.94;100001.34;511414;19;1399;-42
2022/06/19 10:29:15;;;;;;;;;;;;;;;32.81;58.27;100004.88;511622;19;813;-43
2022/06/19 10:29:30;;;;;;;;;;;;;;;32.82;59.16;100014.03;511835;19;1198;-42
2022/06/19 10:30:00;;;;;;;;;;;;;;;32.85;59.57;100010.72;511929;19;952;-43
2022/06/19 10:30:15;;;;;;;;;;;;;;;32.85;60.46;100002.44;475481;19;12354;-42
2022/06/19 10:30:45;;;;;;;;;;;;;;;32.87;61.80;100014.91;511747;19;1238;-43
2022/06/19 10:31:09;;;;;;;;;;;;;;;32.87;58.88;100003.03;511928;19;908;-42
2022/06/19 10:31:24;;;;;;;;;;;;;;;32.90;57.86;100006.13;511927;19;991;-42
2022/06/19 10:31:56;;;;;;;;;;;;;;;32.92;59.08;100012.25;511712;19;888;-42
2022/06/19 10:32:08;;;;;;;;;;;;;;;32.92;57.17;100012.25;511461;19;1412;-42
2022/06/19 10:32:26;;;;;;;;;;;;;;;32.96;57.82;100000.69;511520;19;1372;-42
2022/06/19 10:32:38;;;;;;;;;;;;;;;32.92;58.15;100005.88;511546;19;952;-42
2022/06/19 10:32:50;;;;;;;;;;;;;;;32.91;57.40;100006.97;511659;19;833;-42
2022/06/19 10:33:08;;;;;;;;;;;;;;;32.92;56.77;100008.66;511651;19;977;-42
2022/06/19 10:33:25;;;;;;;;;;;;;;;32.87;57.83;100008.56;511650;19;1079;-42
2022/06/19 10:33:46;;;;;;;;;;;;;;;32.87;57.82;100003.88;511713;19;1031;-44
2022/06/19 10:34:09;;;;;;;;;;;;;;;32.92;58.16;100008.66;511747;19;813;-42
2022/06/19 10:34:33;;;;;;;;;;;;;;;32.97;58.83;100008.72;511861;19;1023;-42
2022/06/19 10:35:04;;;;;;;;;;;;;;;33.00;60.52;99997.16;511791;19;928;-42
2022/06/19 10:35:37;;;;;;;;;;;;;;;33.01;58.53;100004.34;512058;19;1368;-42
2022/06/19 10:36:10;;;;;;;;;;;;;;;33.07;59.09;100003.34;511305;19;861;-42
2022/06/19 10:36:27;;;;;;;;;;;;;;;33.12;59.04;100003.41;467493;19;12260;-42
2022/06/19 10:36:48;;;;;;;;;;;;;;;33.14;58.99;99998.47;511634;19;1236;-42
2022/06/19 10:37:20;;;;;;;;;;;;;;;33.13;58.12;99994.03;511898;19;1732;-42
2022/06/19 10:37:33;;;;;;;;;;;;;;;33.08;57.83;99987.59;511827;19;919;-42
2022/06/19 10:37:48;;;;;;;;;;;;;;;33.12;58.18;100002.59;511867;19;1387;-43
2022/06/19 10:38:01;;;;;;;;;;;;;;;33.14;58.36;99995.72;512049;19;1196;-43
2022/06/19 10:38:36;;;;;;;;;;;;;;;33.11;58.38;99998.13;511891;19;880;-43
2022/06/19 10:39:17;;;;;;;;;;;;;;;33.12;58.62;100002.59;511616;19;937;-42
2022/06/19 10:39:44;;;;;;;;;;;;;;;33.11;56.66;99998.97;509529;19;1165;-42
2022/06/19 10:39:56;;;;;;;;;;;;;;;33.14;58.15;99992.94;511311;19;1353;-42
2022/06/19 10:40:20;;;;;;;;;;;;;;;33.17;58.09;99997.13;511321;19;1170;-42
2022/06/19 10:40:37;;;;;;;;;;;;;;;33.18;57.45;99991.34;511175;19;848;-42
2022/06/19 10:41:05;;;;;;;;;;;;;;;33.14;57.32;99990.19;511181;19;1419;-42
2022/06/19 10:42:23;;;;;;;;;;;;;;;33.12;58.79;99978.53;511666;19;875;-42
2022/06/19 10:42:38;;;;;;;;;;;;;;;33.11;57.89;99987.91;511522;19;912;-42
2022/06/19 10:42:57;;;;;;;;;;;;;;;33.10;58.66;99997.31;511505;19;1704;-42
2022/06/19 10:43:11;;;;;;;;;;;;;;;33.14;58.29;99994.88;511104;19;1335;-42
2022/06/19 10:43:32;;;;;;;;;;;;;;;33.15;58.91;99994.63;511456;19;937;-42
2022/06/19 10:43:55;;;;;;;;;;;;;;;33.17;60.64;99986.06;511381;19;936;-42
2022/06/19 10:44:13;;;;;;;;;;;;;;;33.21;59.29;99996.34;511303;19;867;-42
2022/06/19 10:44:49;;;;;;;;;;;;;;;33.24;60.04;99984.81;511553;19;932;-42
2022/06/19 10:45:16;;;;;;;;;;;;;;;33.32;61.85;99993.78;511559;19;872;-43
2022/06/19 10:45:33;;;;;;;;;;;;;;;33.34;61.19;99991.56;511767;19;971;-43
2022/06/19 10:46:13;;;;;;;;;;;;;;;33.35;60.83;99993.25;511534;19;956;-42
2022/06/19 10:46:26;;;;;;;;;;;;;;;33.33;59.63;99984.41;511308;19;1237;-42
2022/06/19 10:46:38;;;;;;;;;;;;;;;33.33;59.20;99984.41;511464;19;849;-42
2022/06/19 10:46:54;;;;;;;;;;;;;;;33.34;59.56;99991.56;511721;19;849;-42
2022/06/19 10:47:25;;;;;;;;;;;;;;;33.34;59.91;99991.56;511571;19;1006;-42
2022/06/19 10:47:58;;;;;;;;;;;;;;;33.38;59.99;99993.59;511525;19;924;-41
2022/06/19 10:48:22;;;;;;;;;;;;;;;33.42;61.20;99993.94;511418;19;972;-42
2022/06/19 10:49:00;;;;;;;;;;;;;;;33.46;61.54;99989.53;511738;19;805;-45
2022/06/19 10:49:28;;;;;;;;;;;;;;;33.48;62.35;99987.34;511701;19;885;-42
2022/06/19 10:49:40;;;;;;;;;;;;;;;33.47;63.08;99988.44;511390;19;1715;-43
2022/06/19 10:50:00;;;;;;;;;;;;;;;33.48;61.01;99992.88;511510;19;975;-42
2022/06/19 10:50:27;;;;;;;;;;;;;;;33.51;61.02;99982.16;511654;19;872;-42
2022/06/19 10:50:39;;;;;;;;;;;;;;;33.51;62.24;99981.31;511615;19;959;-43
2022/06/19 10:50:56;;;;;;;;;;;;;;;33.55;63.01;99988.00;511496;19;1059;-43
2022/06/19 10:51:11;;;;;;;;;;;;;;;33.58;62.41;99998.53;511549;19;947;-43
2022/06/19 10:51:28;;;;;;;;;;;;;;;33.60;62.86;99985.28;511408;19;1659;-42
2022/06/19 10:51:43;;;;;;;;;;;;;;;33.60;61.98;99990.84;511582;19;832;-43
2022/06/19 10:52:03;;;;;;;;;;;;;;;33.62;61.20;99991.41;511659;19;992;-43
2022/06/19 10:52:25;;;;;;;;;;;;;;;33.58;59.47;99984.72;511617;19;968;-43
2022/06/19 10:52:40;;;;;;;;;;;;;;;33.59;58.05;99983.63;511851;19;984;-42
2022/06/19 10:52:57;;;;;;;;;;;;;;;33.60;58.15;99985.28;511496;19;961;-43
2022/06/19 10:53:09;;;;;;;;;;;;;;;33.63;59.45;99979.25;511487;19;1612;-43
2022/06/19 10:53:29;;;;;;;;;;;;;;;33.63;60.30;99984.78;511637;19;1019;-43
2022/06/19 10:53:59;;;;;;;;;;;;;;;33.63;61.12;99980.09;511419;19;900;-43
2022/06/19 10:54:22;;;;;;;;;;;;;;;33.65;61.94;99981.75;511135;19;979;-42
2022/06/19 10:54:46;;;;;;;;;;;;;;;33.65;60.70;99977.06;511665;19;923;-42
2022/06/19 10:54:58;;;;;;;;;;;;;;;33.68;60.01;99976.56;511690;19;1839;-43
2022/06/19 10:55:13;;;;;;;;;;;;;;;33.67;59.68;99977.66;511605;19;848;-42
2022/06/19 10:55:32;;;;;;;;;;;;;;;33.69;59.74;99981.00;511735;19;881;-42
2022/06/19 10:55:54;;;;;;;;;;;;;;;33.69;60.35;99981.00;511450;19;873;-42
2022/06/19 10:56:23;;;;;;;;;;;;;;;33.68;60.17;99973.78;511536;19;987;-42
2022/06/19 10:56:44;;;;;;;;;;;;;;;33.68;59.63;99982.09;511254;19;1639;-42
2022/06/19 10:56:55;;;;;;;;;;;;;;;33.72;60.68;99977.69;511594;19;1291;-43
2022/06/19 10:57:28;;;;;;;;;;;;;;;33.72;62.25;99977.69;511413;19;841;-42
2022/06/19 10:58:09;;;;;;;;;;;;;;;33.74;60.39;99981.03;511213;19;897;-42
2022/06/19 10:58:22;;;;;;;;;;;;;;;33.75;60.73;99977.22;511405;19;1640;-42
2022/06/19 10:58:36;;;;;;;;;;;;;;;33.77;61.32;99974.19;511356;19;957;-42
2022/06/19 10:58:48;;;;;;;;;;;;;;;33.78;61.09;99973.94;511112;19;1434;-44
2022/06/19 10:59:00;;;;;;;;;;;;;;;33.78;61.50;99982.25;511508;19;904;-42
2022/06/19 10:59:13;;;;;;;;;;;;;;;33.77;61.71;99977.81;511863;19;1027;-42
2022/06/19 10:59:25;;;;;;;;;;;;;;;33.75;60.07;99979.13;511511;19;951;-42
2022/06/19 10:59:37;;;;;;;;;;;;;;;33.72;60.23;99976.84;511466;19;952;-42
2022/06/19 10:59:51;;;;;;;;;;;;;;;33.73;59.50;99979.38;511165;19;1348;-43
2022/06/19 11:00:04;;;;;;;;;;;;;;;33.74;59.91;99969.97;511634;19;1733;-43
2022/06/19 11:00:16;;;;;;;;;;;;;;;33.72;60.01;99976.84;511549;19;982;-42
2022/06/19 11:00:28;;;;;;;;;;;;;;;33.73;59.84;99973.84;511696;19;867;-42
2022/06/19 11:00:41;;;;;;;;;;;;;;;33.76;60.07;99976.13;511417;19;1053;-43
2022/06/19 11:00:54;;;;;;;;;;;;;;;33.75;59.59;99979.97;511581;19;885;-42
2022/06/19 11:04:06;;;;;;;;;;;;;;;33.77;58.72;99974.19;511493;19;877;-42
2022/06/19 11:04:12;;;;;;;;;;;;;;;33.75;54.74;99974.44;511314;19;2101;-43
2022/06/19 11:04:25;;;;;;;;;;;;;;;33.78;55.07;99975.88;511608;19;821;-42
2022/06/19 11:04:37;;;;;;;;;;;;;;;33.78;55.40;99971.16;511745;19;1110;-44
2022/06/19 11:04:54;;;;;;;;;;;;;;;33.77;54.58;99975.03;511249;19;1300;-42
2022/06/19 11:05:12;;;;;;;;;;;;;;;33.72;55.39;99966.63;511595;19;967;-43
2022/06/19 11:05:27;;;;;;;;;;;;;;;33.75;56.53;99959.75;511632;19;878;-43
2022/06/19 11:05:45;;;;;;;;;;;;;;;33.73;56.71;99968.28;511281;19;892;-43
2022/06/19 11:06:03;;;;;;;;;;;;;;;33.72;56.71;99969.38;511246;19;848;-43
2022/06/19 11:06:16;;;;;;;;;;;;;;;33.71;57.31;99976.03;511532;19;1737;-43
2022/06/19 11:06:49;;;;;;;;;;;;;;;33.72;57.23;99980.47;511360;19;1549;-43
2022/06/19 11:07:04;;;;;;;;;;;;;;;33.72;57.35;99969.38;511625;19;948;-44
2022/06/19 11:07:16;;;;;;;;;;;;;;;33.71;57.24;99972.41;511563;19;1670;-43
2022/06/19 11:07:30;;;;;;;;;;;;;;;33.71;56.91;99958.56;511569;19;971;-43
2022/06/19 11:07:45;;;;;;;;;;;;;;;33.70;57.08;99968.81;511702;19;920;-43
2022/06/19 11:07:57;;;;;;;;;;;;;;;33.71;57.72;99970.47;511408;19;1250;-43
2022/06/19 11:08:11;;;;;;;;;;;;;;;33.73;57.65;99968.28;511365;19;825;-43
2022/06/19 11:08:26;;;;;;;;;;;;;;;33.75;57.83;99976.34;511277;19;1733;-43
2022/06/19 11:08:38;;;;;;;;;;;;;;;33.74;57.86;99964.44;511368;19;1664;-43
2022/06/19 11:08:53;;;;;;;;;;;;;;;33.73;57.41;99973.00;511409;19;1202;-41
2022/06/19 11:09:09;;;;;;;;;;;;;;;33.73;56.89;99971.06;511275;19;1361;-41
2022/06/19 11:09:32;;;;;;;;;;;;;;;33.64;56.65;99969.84;511590;19;893;-41
2022/06/19 11:09:46;;;;;;;;;;;;;;;33.68;57.11;99965.50;511397;19;1044;-41
2022/06/19 11:10:03;;;;;;;;;;;;;;;33.71;57.59;99962.19;511442;19;929;-41
2022/06/19 11:10:17;;;;;;;;;;;;;;;33.71;57.43;99966.88;511290;19;1132;-40
2022/06/19 11:10:42;;;;;;;;;;;;;;;33.74;57.98;99969.97;511750;19;1229;-40
2022/06/19 11:10:55;;;;;;;;;;;;;;;33.75;58.17;99963.38;511435;19;1864;-41
2022/06/19 11:11:07;;;;;;;;;;;;;;;33.80;58.09;99969.00;511479;19;920;-41
2022/06/19 11:11:19;;;;;;;;;;;;;;;33.80;57.30;99968.16;511479;19;948;-40
2022/06/19 11:11:31;;;;;;;;;;;;;;;33.82;56.61;99964.00;511860;19;990;-41
2022/06/19 11:11:43;;;;;;;;;;;;;;;33.85;56.84;99965.41;511520;19;957;-42
2022/06/19 11:11:56;;;;;;;;;;;;;;;33.85;58.11;99962.66;511367;19;900;-41
2022/06/19 11:12:29;;;;;;;;;;;;;;;33.86;57.50;99961.56;511381;19;972;-41
2022/06/19 11:12:42;;;;;;;;;;;;;;;33.78;56.07;99960.09;511496;19;1593;-40
2022/06/19 11:12:56;;;;;;;;;;;;;;;33.80;56.69;99969.00;511468;19;868;-40
2022/06/19 11:13:09;;;;;;;;;;;;;;;33.74;55.70;99963.59;511715;19;765;-42
2022/06/19 11:13:21;;;;;;;;;;;;;;;33.76;56.30;99966.97;511574;19;968;-41
2022/06/19 11:13:51;;;;;;;;;;;;;;;33.74;55.20;99961.66;511535;19;947;-41
2022/06/19 11:14:09;;;;;;;;;;;;;;;33.77;55.50;99955.66;511244;19;983;-41
2022/06/19 11:14:27;;;;;;;;;;;;;;;33.78;55.24;99960.09;511304;19;1721;-40
2022/06/19 11:14:44;;;;;;;;;;;;;;;33.79;55.45;99970.09;511443;19;923;-41
2022/06/19 11:14:56;;;;;;;;;;;;;;;33.82;56.01;99961.22;511525;19;876;-41
2022/06/19 11:15:19;;;;;;;;;;;;;;;33.84;56.87;99956.28;511486;19;952;-42
2022/06/19 11:15:35;;;;;;;;;;;;;;;33.83;56.79;99962.91;487539;19;13442;-41
2022/06/19 11:16:04;;;;;;;;;;;;;;;33.85;56.29;99963.50;511112;19;1317;-41
2022/06/19 11:16:16;;;;;;;;;;;;;;;33.84;56.32;99958.22;511368;19;1591;-41
2022/06/19 11:16:29;;;;;;;;;;;;;;;33.83;57.33;99951.84;511477;19;1102;-41
2022/06/19 11:17:12;;;;;;;;;;;;;;;33.80;57.61;99952.38;511408;19;868;-41
2022/06/19 11:17:32;;;;;;;;;;;;;;;33.78;56.48;99968.41;511381;19;1533;-41
2022/06/19 11:17:43;;;;;;;;;;;;;;;33.77;56.47;99952.06;511112;19;1196;-41
2022/06/19 11:18:07;;;;;;;;;;;;;;;33.76;55.78;99955.91;511429;19;1704;-41
2022/06/19 11:18:25;;;;;;;;;;;;;;;33.76;54.46;99962.28;511554;19;1046;-41
2022/06/19 11:18:47;;;;;;;;;;;;;;;33.71;54.48;99953.88;511307;19;904;-41
2022/06/19 11:18:59;;;;;;;;;;;;;;;33.70;55.51;99952.19;511756;19;916;-40
2022/06/19 11:19:11;;;;;;;;;;;;;;;33.67;54.83;99958.28;511146;19;1167;-41
2022/06/19 11:19:45;;;;;;;;;;;;;;;33.63;55.23;99955.19;511648;19;876;-41
2022/06/19 11:19:57;;;;;;;;;;;;;;;33.65;55.94;99959.63;511599;19;969;-41
2022/06/19 11:20:15;;;;;;;;;;;;;;;33.67;56.25;99955.50;511400;19;932;-41
2022/06/19 11:20:27;;;;;;;;;;;;;;;33.66;56.04;99953.84;511564;19;948;-41
2022/06/19 11:20:40;;;;;;;;;;;;;;;33.69;56.11;99960.78;511024;19;1124;-41
2022/06/19 11:20:58;;;;;;;;;;;;;;;33.72;56.59;99955.56;511478;19;1057;-41
2022/06/19 11:21:17;;;;;;;;;;;;;;;33.73;59.04;99960.00;511451;19;1265;-41
2022/06/19 11:21:33;;;;;;;;;;;;;;;33.74;58.42;99953.38;511598;19;1801;-40
2022/06/19 11:21:45;;;;;;;;;;;;;;;33.76;57.97;99955.91;511699;19;971;-41
2022/06/19 11:21:57;;;;;;;;;;;;;;;33.74;58.14;99936.75;511457;19;935;-40
2022/06/19 11:22:24;;;;;;;;;;;;;;;33.69;57.84;99958.03;511509;19;1236;-41
2022/06/19 11:22:41;;;;;;;;;;;;;;;33.71;56.74;99956.66;511260;19;977;-41
2022/06/19 11:23:00;;;;;;;;;;;;;;;33.74;56.73;99947.00;511331;19;837;-41
2022/06/19 11:23:29;;;;;;;;;;;;;;;33.76;56.65;99950.38;511645;19;955;-41
2022/06/19 11:23:41;;;;;;;;;;;;;;;33.76;57.82;99953.16;511293;19;988;-41
2022/06/19 11:23:54;;;;;;;;;;;;;;;33.73;58.27;99935.09;511359;19;1291;-41
2022/06/19 11:24:12;;;;;;;;;;;;;;;33.74;57.41;99947.84;511125;19;1845;-41
2022/06/19 11:24:26;;;;;;;;;;;;;;;33.70;56.51;99946.66;511302;19;1552;-41
2022/06/19 11:24:38;;;;;;;;;;;;;;;33.74;56.89;99952.53;511422;19;956;-41
2022/06/19 11:24:50;;;;;;;;;;;;;;;33.72;56.81;99944.47;511276;19;887;-41
2022/06/19 11:25:20;;;;;;;;;;;;;;;33.73;55.27;99948.91;511449;19;881;-41
2022/06/19 11:25:32;;;;;;;;;;;;;;;33.74;56.64;99945.06;511447;19;976;-44
2022/06/19 11:25:45;;;;;;;;;;;;;;;33.77;57.29;99941.81;511719;19;949;-42
2022/06/19 11:26:23;;;;;;;;;;;;;;;33.75;57.57;99938.47;511718;19;1020;-41
2022/06/19 11:26:35;;;;;;;;;;;;;;;33.70;55.29;99930.06;511577;19;905;-41
2022/06/19 11:26:47;;;;;;;;;;;;;;;33.70;54.71;99927.28;511419;19;1553;-41
2022/06/19 11:26:59;;;;;;;;;;;;;;;33.73;55.01;99940.63;511697;19;928;-41
2022/06/19 11:27:21;;;;;;;;;;;;;;;33.74;54.81;99942.28;511786;19;852;-41
2022/06/19 11:27:33;;;;;;;;;;;;;;;33.76;56.63;99940.13;511701;19;991;-41
2022/06/19 11:27:59;;;;;;;;;;;;;;;33.76;55.52;99939.31;511810;19;980;-43
2022/06/19 11:28:15;;;;;;;;;;;;;;;33.78;55.12;99937.94;511726;19;908;-42
2022/06/19 11:28:44;;;;;;;;;;;;;;;33.80;55.56;99940.47;511709;19;1004;-41
2022/06/19 11:29:04;;;;;;;;;;;;;;;33.84;56.78;99944.38;511482;19;1020;-41
2022/06/19 11:29:17;;;;;;;;;;;;;;;33.84;57.02;99942.44;511493;19;1736;-41
2022/06/19 11:29:28;;;;;;;;;;;;;;;33.83;56.65;99935.22;511729;19;963;-41
2022/06/19 11:29:42;;;;;;;;;;;;;;;33.83;56.29;99937.16;511454;19;1000;-41
2022/06/19 11:29:55;;;;;;;;;;;;;;;33.81;55.61;99942.94;511667;19;904;-41
2022/06/19 11:30:07;;;;;;;;;;;;;;;33.80;55.11;99941.31;511462;19;1854;-41
2022/06/19 11:30:53;;;;;;;;;;;;;;;33.80;55.38;99930.22;511667;19;1236;-40
2022/06/19 11:31:11;;;;;;;;;;;;;;;33.82;56.89;99941.84;232983;19;5011341;-42
2022/06/19 11:31:23;;;;;;;;;;;;;;;33.84;56.16;99939.66;511472;19;802;-41
2022/06/19 11:32:02;;;;;;;;;;;;;;;33.86;57.40;99940.25;511241;19;976;-41
2022/06/19 11:32:17;;;;;;;;;;;;;;;33.86;55.98;99934.72;511425;19;1317;-42
2022/06/19 11:32:29;;;;;;;;;;;;;;;33.84;54.37;99931.34;511759;19;1230;-41
2022/06/19 11:32:47;;;;;;;;;;;;;;;33.82;54.40;99928.00;511325;19;1119;-42
2022/06/19 11:32:59;;;;;;;;;;;;;;;33.83;54.54;99932.44;511501;19;1034;-41
2022/06/19 11:33:12;;;;;;;;;;;;;;;33.83;54.48;99935.22;511599;19;1043;-41
2022/06/19 11:33:27;;;;;;;;;;;;;;;33.88;55.07;99931.69;511760;19;909;-41
2022/06/19 11:33:42;;;;;;;;;;;;;;;33.90;55.22;99935.88;511564;19;944;-41
2022/06/19 11:34:43;;;;;;;;;;;;;;;33.91;55.90;99920.94;511591;19;1247;-42
2022/06/19 11:34:45;;;;;;;;;;;;;;;33.91;54.70;99932.00;511657;19;2350;-42
2022/06/19 11:35:09;;;;;;;;;;;;;;;33.88;53.65;99932.53;511733;19;900;-42
2022/06/19 11:35:21;;;;;;;;;;;;;;;33.90;54.11;99933.09;511776;19;925;-42
2022/06/19 11:35:53;;;;;;;;;;;;;;;33.89;54.36;99934.19;511509;19;953;-42
2022/06/19 11:36:08;;;;;;;;;;;;;;;33.95;54.67;99927.59;511326;19;980;-42
2022/06/19 11:36:27;;;;;;;;;;;;;;;33.93;54.92;99924.25;511573;19;984;-41
2022/06/19 11:36:42;;;;;;;;;;;;;;;33.94;53.80;99925.91;511316;19;1071;-41
2022/06/19 11:36:55;;;;;;;;;;;;;;;33.95;54.83;99924.84;511427;19;1095;-41
2022/06/19 11:37:25;;;;;;;;;;;;;;;33.92;54.00;99928.16;511442;19;1648;-41
2022/06/19 11:37:45;;;;;;;;;;;;;;;33.96;54.52;99932.03;511514;19;1040;-41
2022/06/19 11:38:00;;;;;;;;;;;;;;;33.92;54.52;99928.16;511620;19;909;-41
2022/06/19 11:38:12;;;;;;;;;;;;;;;33.92;53.85;99922.59;511604;19;1046;-41
2022/06/19 11:38:41;;;;;;;;;;;;;;;33.92;53.67;99933.69;511571;19;967;-41
2022/06/19 11:38:54;;;;;;;;;;;;;;;33.89;53.03;99925.88;511657;19;1067;-41
2022/06/19 11:39:27;;;;;;;;;;;;;;;33.92;53.63;99928.16;511421;19;972;-41
2022/06/19 11:39:40;;;;;;;;;;;;;;;33.97;55.72;99935.66;509007;19;1401;-42
2022/06/19 11:39:54;;;;;;;;;;;;;;;33.95;55.71;99935.91;509784;19;952;-41
2022/06/19 11:40:05;;;;;;;;;;;;;;;33.98;55.02;99932.63;509763;19;1205;-41
2022/06/19 11:40:28;;;;;;;;;;;;;;;33.93;54.74;99924.25;509799;19;860;-41
2022/06/19 11:40:42;;;;;;;;;;;;;;;33.92;53.81;99928.16;509598;19;1194;-41
2022/06/19 11:40:56;;;;;;;;;;;;;;;33.90;52.76;99913.72;509686;19;968;-41
2022/06/19 11:41:15;;;;;;;;;;;;;;;33.90;53.00;99941.41;509746;19;1117;-41
2022/06/19 11:41:28;;;;;;;;;;;;;;;33.89;53.21;99920.34;509449;19;1315;-41
2022/06/19 11:41:40;;;;;;;;;;;;;;;33.92;53.15;99927.31;509540;19;1012;-41
2022/06/19 11:41:52;;;;;;;;;;;;;;;33.95;53.18;99926.75;509821;19;971;-41
2022/06/19 11:42:19;;;;;;;;;;;;;;;33.95;53.33;99926.75;509673;19;885;-42
2022/06/19 11:42:33;;;;;;;;;;;;;;;33.95;53.35;99933.13;509677;19;968;-41
2022/06/19 11:42:47;;;;;;;;;;;;;;;33.96;54.46;99934.81;509814;19;1011;-41
2022/06/19 11:42:59;;;;;;;;;;;;;;;33.91;55.01;99926.47;509568;19;1133;-41
2022/06/19 11:43:30;;;;;;;;;;;;;;;33.92;55.03;99933.69;509641;19;937;-41
2022/06/19 11:44:06;;;;;;;;;;;;;;;33.94;55.91;99925.91;509808;19;1058;-41
2022/06/19 11:44:19;;;;;;;;;;;;;;;33.96;57.34;99933.97;509888;19;1019;-42
2022/06/19 11:44:32;;;;;;;;;;;;;;;33.96;56.25;99929.28;509875;19;1303;-41
2022/06/19 11:44:54;;;;;;;;;;;;;;;33.93;55.16;99924.25;509829;19;995;-42
2022/06/19 11:45:11;;;;;;;;;;;;;;;33.96;55.09;99926.50;509630;19;936;-42
2022/06/19 11:45:29;;;;;;;;;;;;;;;33.96;55.26;99926.50;509784;19;947;-42
2022/06/19 11:45:40;;;;;;;;;;;;;;;33.97;55.76;99928.19;509501;19;1174;-42
2022/06/19 11:46:03;;;;;;;;;;;;;;;33.94;55.97;99917.63;509718;19;939;-42
2022/06/19 11:46:16;;;;;;;;;;;;;;;33.95;55.76;99927.59;509761;19;884;-42
2022/06/19 11:46:29;;;;;;;;;;;;;;;33.97;55.18;99925.41;509688;19;872;-41
2022/06/19 11:46:42;;;;;;;;;;;;;;;33.94;55.29;99919.56;509677;19;893;-42
2022/06/19 11:46:57;;;;;;;;;;;;;;;33.92;55.41;99928.16;509813;19;1003;-42
2022/06/19 11:47:10;;;;;;;;;;;;;;;33.92;55.42;99927.31;509791;19;1043;-41
2022/06/19 11:47:41;;;;;;;;;;;;;;;33.91;55.40;99926.47;509539;19;1608;-41
2022/06/19 11:47:56;;;;;;;;;;;;;;;33.91;56.42;99920.09;509598;19;896;-42
2022/06/19 11:48:17;;;;;;;;;;;;;;;33.93;56.21;99929.78;509611;19;1036;-42
2022/06/19 11:48:29;;;;;;;;;;;;;;;33.93;57.10;99923.44;509567;19;1088;-42
2022/06/19 11:48:40;;;;;;;;;;;;;;;33.93;56.58;99927.03;509617;19;955;-42
2022/06/19 11:48:53;;;;;;;;;;;;;;;33.94;55.91;99925.91;509738;19;995;-42
2022/06/19 11:49:18;;;;;;;;;;;;;;;33.95;55.77;99932.28;509490;19;1209;-42
2022/06/19 11:49:31;;;;;;;;;;;;;;;33.97;55.87;99921.81;509635;19;1031;-42
2022/06/19 11:49:50;;;;;;;;;;;;;;;33.95;55.62;99926.75;509277;19;1056;-42
2022/06/19 11:50:10;;;;;;;;;;;;;;;33.91;55.45;99920.94;509662;19;1023;-42
2022/06/19 11:50:27;;;;;;;;;;;;;;;33.93;55.29;99920.69;509735;19;936;-41
2022/06/19 11:50:41;;;;;;;;;;;;;;;33.96;55.82;99923.72;509572;19;941;-42
2022/06/19 11:50:55;;;;;;;;;;;;;;;33.97;56.49;99914.34;509582;19;1862;-41
2022/06/19 11:51:15;;;;;;;;;;;;;;;33.95;56.50;99921.22;509628;19;967;-41
2022/06/19 11:51:28;;;;;;;;;;;;;;;33.97;56.05;99928.19;509709;19;1217;-41
2022/06/19 11:51:40;;;;;;;;;;;;;;;33.98;56.18;99916.00;509575;19;861;-40
2022/06/19 11:51:53;;;;;;;;;;;;;;;33.98;55.75;99918.78;509281;19;1671;-41
2022/06/19 11:52:15;;;;;;;;;;;;;;;34.01;55.16;99919.34;509690;19;1321;-41
2022/06/19 11:52:28;;;;;;;;;;;;;;;34.01;56.15;99913.81;509752;19;909;-41
2022/06/19 11:52:40;;;;;;;;;;;;;;;34.01;56.01;99919.34;509665;19;928;-41
2022/06/19 11:52:53;;;;;;;;;;;;;;;33.98;54.80;99924.31;509691;19;1007;-41
2022/06/19 11:53:05;;;;;;;;;;;;;;;34.00;54.10;99924.06;509318;19;972;-41
2022/06/19 11:53:21;;;;;;;;;;;;;;;34.02;55.13;99923.81;509850;19;928;-41
2022/06/19 11:53:40;;;;;;;;;;;;;;;33.98;53.93;99932.63;509662;19;1246;-41
2022/06/19 11:53:53;;;;;;;;;;;;;;;34.00;53.26;99917.69;509403;19;996;-42
2022/06/19 11:54:05;;;;;;;;;;;;;;;33.94;53.08;99911.25;509505;19;1055;-41
2022/06/19 11:54:25;;;;;;;;;;;;;;;33.94;53.16;99919.56;509604;19;799;-41
2022/06/19 11:54:42;;;;;;;;;;;;;;;33.87;53.24;99914.25;509555;19;889;-41
2022/06/19 11:54:55;;;;;;;;;;;;;;;33.85;53.76;99915.59;509642;19;861;-41
2022/06/19 11:55:39;;;;;;;;;;;;;;;33.86;54.26;99918.09;509561;19;1113;-41
2022/06/19 11:55:51;;;;;;;;;;;;;;;33.93;55.29;99915.13;509514;19;960;-42
2022/06/19 11:56:20;;;;;;;;;;;;;;;33.95;55.22;99913.75;509295;19;1120;-41
2022/06/19 11:56:35;;;;;;;;;;;;;;;33.94;54.39;99917.63;509607;19;925;-41
2022/06/19 11:56:50;;;;;;;;;;;;;;;33.92;55.43;99906.00;509577;19;1051;-41
2022/06/19 11:57:02;;;;;;;;;;;;;;;33.95;55.54;99916.53;509651;19;1381;-41
2022/06/19 11:57:34;;;;;;;;;;;;;;;33.95;54.58;99912.91;509615;19;1195;-41
2022/06/19 11:57:47;;;;;;;;;;;;;;;33.98;54.42;99910.47;509482;19;1752;-41
2022/06/19 11:58:03;;;;;;;;;;;;;;;33.96;54.88;99923.72;509541;19;937;-42
2022/06/19 11:58:26;;;;;;;;;;;;;;;34.00;55.23;99923.22;509681;19;947;-42
2022/06/19 11:58:39;;;;;;;;;;;;;;;33.99;55.30;99922.38;509545;19;874;-42
2022/06/19 11:58:51;;;;;;;;;;;;;;;34.01;55.04;99913.81;509792;19;880;-41
2022/06/19 11:59:07;;;;;;;;;;;;;;;34.04;55.79;99924.38;509330;19;1661;-41
2022/06/19 11:59:29;;;;;;;;;;;;;;;34.07;56.30;99918.28;509526;19;976;-41
2022/06/19 11:59:44;;;;;;;;;;;;;;;34.08;55.37;99920.81;509655;19;976;-41
2022/06/19 11:59:56;;;;;;;;;;;;;;;34.12;56.27;99921.97;509539;19;870;-41
2022/06/19 12:00:20;;;;;;;;;;;;;;;34.12;55.79;99923.88;509318;19;884;-42
2022/06/19 12:00:36;;;;;;;;;;;;;;;34.12;54.95;99916.41;509688;19;1651;-42
2022/06/19 12:00:58;;;;;;;;;;;;;;;34.16;55.13;99916.75;509694;19;880;-41
2022/06/19 12:01:12;;;;;;;;;;;;;;;34.16;56.23;99919.50;509532;19;1027;-42
2022/06/19 12:01:34;;;;;;;;;;;;;;;34.17;56.65;99918.41;509695;19;1010;-42
2022/06/19 12:01:45;;;;;;;;;;;;;;;34.17;55.71;99915.66;509749;19;1075;-41
2022/06/19 12:02:00;;;;;;;;;;;;;;;34.17;55.64;99918.41;509694;19;915;-42
2022/06/19 12:02:22;;;;;;;;;;;;;;;34.18;56.00;99920.88;509526;19;852;-41
2022/06/19 12:02:38;;;;;;;;;;;;;;;34.22;56.65;99912.91;509664;19;929;-42
2022/06/19 12:02:52;;;;;;;;;;;;;;;34.22;57.03;99912.91;509714;19;991;-41
2022/06/19 12:03:08;;;;;;;;;;;;;;;34.20;55.57;99913.16;509528;19;880;-42
2022/06/19 12:03:30;;;;;;;;;;;;;;;34.19;55.38;99910.66;509795;19;959;-41
2022/06/19 12:03:58;;;;;;;;;;;;;;;34.18;54.58;99906.22;509543;19;1011;-41
2022/06/19 12:04:25;;;;;;;;;;;;;;;34.19;54.20;99905.09;509542;19;894;-42
2022/06/19 12:04:39;;;;;;;;;;;;;;;34.17;53.95;99913.72;509635;19;936;-42
2022/06/19 12:04:53;;;;;;;;;;;;;;;34.15;53.95;99901.22;509757;19;944;-42
2022/06/19 12:05:07;;;;;;;;;;;;;;;34.17;53.80;99918.41;509663;19;805;-42
2022/06/19 12:05:20;;;;;;;;;;;;;;;34.17;53.53;99912.88;509695;19;936;-41
2022/06/19 12:05:33;;;;;;;;;;;;;;;34.16;54.17;99916.75;509713;19;1752;-41
2022/06/19 12:05:53;;;;;;;;;;;;;;;34.18;54.38;99914.50;509675;19;948;-41
2022/06/19 12:06:09;;;;;;;;;;;;;;;34.16;54.97;99925.06;509546;19;940;-41
2022/06/19 12:06:36;;;;;;;;;;;;;;;34.17;54.75;99923.94;509446;19;1272;-41
2022/06/19 12:06:49;;;;;;;;;;;;;;;34.21;56.43;99912.06;509766;19;1023;-41
2022/06/19 12:07:17;;;;;;;;;;;;;;;34.21;56.69;99911.22;509700;19;952;-41
2022/06/19 12:07:30;;;;;;;;;;;;;;;34.23;56.45;99915.41;509411;19;1006;-42
2022/06/19 12:07:44;;;;;;;;;;;;;;;34.22;56.76;99915.66;509578;19;920;-42
2022/06/19 12:08:00;;;;;;;;;;;;;;;34.23;55.24;99920.13;509626;19;1134;-42
2022/06/19 12:08:16;;;;;;;;;;;;;;;34.16;53.89;99905.66;509632;19;860;-42
2022/06/19 12:08:37;;;;;;;;;;;;;;;34.19;54.36;99905.09;509364;19;1027;-42
2022/06/19 12:08:57;;;;;;;;;;;;;;;34.20;54.55;99906.78;509684;19;963;-41